Detall de PIREP

Printer-friendly versionPDF version

[2016/02/06 10:34:00]
Flight IATA:CT3108
Pilot Number:012
Company ICAO:CAT
Aircraft Type:B763/F
PAX:263
Departing Airport: LIEA
Destination Airport: LEZG
Alternate Airport:LEBL
Online: VATSIM
Route:GINOX UM601 BCN UN725 LOBAR
Flight Level:F350
No Slew and time accel
No pause
Crash detect
Detect pilot in Cockpit between each 30 and 45 minutes
10:34 Zero fuel Weight: 254809 Lbs, Fuel Weight: 27200 Lbs
10:34 VATSIM:LIEA 060950Z VRB03KT CAVOK 14/08 Q1028
10:34 VATSIM:LEZG 061000Z 11010KT 9999 SCT047 05/02 Q1022
10:37 Parking Brakes off
10:41 Take-off
10:41 Take off Weight: 280572 Lbs
10:41 Wind: 358º @ 003 Knots Heading: 204º
10:41 POS N40º 37´ 52´´ E008º 17´ 25´´
10:41 Gear Up: 174 Knots
10:41 Flaps:2 at 174 Knots
10:46 Flaps:1 at 208 Knots
10:46 Flaps:0 at 214 Knots
10:54 TOC
10:54 Fuel Weight: 19786 Lb
10:56 Wind:261º@043 Knots Heading: 272º Ground Speed: 423 Knots Altitude 35446 ft
11:11 Wind:246º@044 Knots Heading: 275º Ground Speed: 425 Knots Altitude 35347 ft
11:26 Wind:246º@027 Knots Heading: 275º Ground Speed: 440 Knots Altitude 35318 ft
11:36 TOD
11:36 Fuel Weight: 13119 Lb
11:41 Wind:241º@021 Knots Heading: 284º Ground Speed: 402 Knots Altitude 21837 ft
11:51 Flaps:1 at 239 Knots
11:52 Flaps:2 at 233 Knots
11:52 Flaps:3 at 212 Knots
11:54 Flaps:4 at 173 Knots
11:55 Gear Down: 168 Knots
11:56 Wind:148º@008 Knots Heading: 159º Ground Speed: 162 Knots Altitude 2732 ft
11:56 Flaps:5 at 173 Knots
11:56 Flaps:6 at 144 Knots
11:59 TouchDown:Rate -257 ft/min Speed: 124 Knots
11:59 VATSIM:LEZG 061130Z 10011KT 9999 SCT050 09/03 Q1021
11:59 Land
11:59 Wind:116º@010 Knots
11:59 Heading: 121º
11:59 Flight Duration: 01:18
11:59 Landing Weight: 265534 Lbs
11:59 POS N41º 40´ 23´´ W001º 03´ 59´´
12:04 Parking brakes on
12:04 Block to Block Duration: 01:27
12:04 Final Fuel: 9938 Lbls
12:04 Spent Fuel: 17261 Lbls
12:04 Flight Length: 487 NM
12:04 TOD Land Length: 108 NM

Exportar CSV

Powered by Drupal - Modified by Danger4k